Time;durP1;ratioP1;P1;durP2;ratioP2;P2;SDS_P1;SDS_P2;PMS_P1;PMS_P2;Temp;Humidity;BMP_temperature;BMP_pressure;BME280_temperature;BME280_humidity;BME280_pressure;Samples;Min_cycle;Max_cycle;Signal;HPM_P1;HPM_P2
2022/03/31 00:00:17;;;;;;;2.03;1.50;;;6.50;99.90;;;;;;5112006;28;20407;-55
2022/03/31 00:02:44;;;;;;;2.00;1.45;;;6.60;99.90;;;;;;5094725;28;20804;-55
2022/03/31 00:05:11;;;;;;;2.97;1.60;;;6.50;99.90;;;;;;5095010;28;20376;-55
2022/03/31 00:07:51;;;;;;;2.50;1.70;;;6.50;99.90;;;;;;5095715;28;20391;-57
2022/03/31 00:10:26;;;;;;;5.03;1.55;;;6.50;99.90;;;;;;5095977;28;20678;-56
2022/03/31 00:12:53;;;;;;;2.00;1.75;;;6.50;99.90;;;;;;5095904;28;20506;-56
2022/03/31 00:15:19;;;;;;;4.65;1.90;;;6.40;99.90;;;;;;5095374;28;20380;-53
2022/03/31 00:17:46;;;;;;;2.72;1.70;;;6.30;99.90;;;;;;5111449;28;20487;-57
2022/03/31 00:20:12;;;;;;;2.60;1.77;;;6.30;99.90;;;;;;5112618;28;20379;-54
2022/03/31 00:22:39;;;;;;;2.22;1.70;;;6.40;99.90;;;;;;5112927;28;20380;-56
2022/03/31 00:25:07;;;;;;;4.25;1.80;;;6.40;99.90;;;;;;5113824;28;20794;-57
2022/03/31 00:27:35;;;;;;;2.00;1.70;;;6.40;99.90;;;;;;5097316;28;20396;-56
2022/03/31 00:30:03;;;;;;;3.70;2.10;;;6.40;99.90;;;;;;5097532;28;20423;-56
2022/03/31 00:32:29;;;;;;;4.75;2.05;;;6.20;99.90;;;;;;5095595;28;20639;-56
2022/03/31 00:34:55;;;;;;;3.55;2.13;;;6.10;99.90;;;;;;5094241;28;20449;-55
2022/03/31 00:37:21;;;;;;;3.60;2.20;;;6.10;99.90;;;;;;5094824;28;20404;-55
2022/03/31 00:39:48;;;;;;;2.65;2.10;;;6.00;99.90;;;;;;5094681;28;20386;-57
2022/03/31 00:42:15;;;;;;;3.45;2.35;;;6.00;99.90;;;;;;5111574;28;20392;-57
2022/03/31 00:44:42;;;;;;;3.30;2.17;;;5.90;99.90;;;;;;5089337;28;20793;-54
2022/03/31 00:47:08;;;;;;;3.35;2.13;;;5.90;99.90;;;;;;5090733;28;20389;-53
2022/03/31 00:49:34;;;;;;;5.50;2.50;;;5.90;99.90;;;;;;5091563;28;20967;-58
2022/03/31 00:52:01;;;;;;;3.20;2.40;;;5.80;99.90;;;;;;5091543;28;20381;-58
2022/03/31 00:54:28;;;;;;;3.05;2.22;;;5.80;99.90;;;;;;5092068;28;20525;-54
2022/03/31 00:56:55;;;;;;;5.40;2.40;;;5.80;99.90;;;;;;5094863;28;20424;-58
2022/03/31 00:59:21;;;;;;;3.35;2.40;;;5.80;99.90;;;;;;5095625;28;20390;-58
2022/03/31 01:01:48;;;;;;;2.97;2.30;;;5.80;99.90;;;;;;5095686;28;20381;-57
2022/03/31 01:04:15;;;;;;;3.20;2.33;;;5.80;99.90;;;;;;5095653;28;20587;-55
2022/03/31 01:06:44;;;;;;;3.33;2.60;;;5.80;99.90;;;;;;5094132;28;20382;-58
2022/03/31 01:09:12;;;;;;;4.35;2.45;;;5.80;99.90;;;;;;5095851;28;20382;-54
2022/03/31 01:11:39;;;;;;;4.25;2.60;;;5.80;99.90;;;;;;5095761;28;20477;-57
2022/03/31 01:14:06;;;;;;;3.67;2.72;;;5.70;99.90;;;;;;5096499;28;20401;-55
2022/03/31 01:16:33;;;;;;;3.20;2.50;;;5.70;99.90;;;;;;5094366;28;20398;-57
2022/03/31 01:19:06;;;;;;;5.20;3.00;;;5.70;99.90;;;;;;5095634;28;20405;-55
2022/03/31 01:21:39;;;;;;;4.85;2.83;;;5.70;99.90;;;;;;5096031;28;20410;-52
2022/03/31 01:24:07;;;;;;;2.97;2.60;;;5.60;99.90;;;;;;5096928;28;20446;-53
2022/03/31 01:26:40;;;;;;;3.27;2.53;;;5.60;99.90;;;;;;5095213;28;20386;-56
2022/03/31 01:29:08;;;;;;;3.88;2.65;;;5.60;99.90;;;;;;5096573;28;20389;-57
2022/03/31 01:31:35;;;;;;;4.38;2.85;;;5.60;99.90;;;;;;5096953;28;20382;-58
2022/03/31 01:34:03;;;;;;;4.03;2.85;;;5.50;99.90;;;;;;5096087;28;20643;-56
2022/03/31 01:36:29;;;;;;;4.18;2.88;;;5.50;99.90;;;;;;5093490;28;20405;-51
2022/03/31 01:38:55;;;;;;;3.60;3.00;;;5.50;99.90;;;;;;5095802;28;20378;-54
2022/03/31 01:41:25;;;;;;;3.30;2.88;;;5.50;99.90;;;;;;5097307;28;20410;-55
2022/03/31 01:43:52;;;;;;;4.13;2.80;;;5.50;99.90;;;;;;5096503;28;20425;-56
2022/03/31 01:46:18;;;;;;;3.15;2.67;;;5.50;99.90;;;;;;5096425;28;20820;-55
2022/03/31 01:48:45;;;;;;;4.43;2.85;;;5.50;99.90;;;;;;5095550;28;20442;-57
2022/03/31 01:51:12;;;;;;;4.80;2.90;;;5.50;99.90;;;;;;5094448;28;20559;-56
2022/03/31 01:53:39;;;;;;;3.13;2.75;;;5.50;99.90;;;;;;5095397;28;20385;-57
2022/03/31 01:56:06;;;;;;;3.95;2.88;;;5.40;99.90;;;;;;5095397;28;20517;-54
2022/03/31 01:58:33;;;;;;;4.13;2.83;;;5.40;99.90;;;;;;5095541;28;20747;-55
2022/03/31 02:00:59;;;;;;;4.27;2.87;;;5.20;99.90;;;;;;5096176;28;20832;-55
2022/03/31 02:03:26;;;;;;;3.60;2.75;;;5.30;99.90;;;;;;5095123;28;20431;-55
2022/03/31 02:05:52;;;;;;;3.75;2.83;;;5.20;99.90;;;;;;5096176;28;20668;-58
2022/03/31 02:08:18;;;;;;;3.50;2.80;;;5.20;99.90;;;;;;5095756;28;20382;-56
2022/03/31 02:10:45;;;;;;;5.10;2.95;;;5.20;99.90;;;;;;5094341;28;20382;-57
2022/03/31 02:13:12;;;;;;;4.43;2.97;;;5.20;99.90;;;;;;5093162;28;20398;-56
2022/03/31 02:15:38;;;;;;;4.10;2.88;;;5.20;99.90;;;;;;5091672;28;20673;-57
2022/03/31 02:18:04;;;;;;;3.88;3.20;;;5.30;99.90;;;;;;5092786;28;20485;-58
2022/03/31 02:20:32;;;;;;;4.50;2.83;;;5.30;99.90;;;;;;5092808;28;20386;-56
2022/03/31 02:23:01;;;;;;;3.58;2.88;;;5.30;99.90;;;;;;5094828;28;20388;-57
2022/03/31 02:25:28;;;;;;;4.30;3.03;;;5.20;99.90;;;;;;5076493;28;20386;-58
2022/03/31 02:27:55;;;;;;;4.43;3.28;;;5.20;99.90;;;;;;5093190;28;20397;-54
2022/03/31 02:30:22;;;;;;;5.68;3.30;;;5.20;99.90;;;;;;5094318;28;20382;-57
2022/03/31 02:32:49;;;;;;;4.40;3.00;;;5.30;99.90;;;;;;5093107;28;20385;-57
2022/03/31 02:35:17;;;;;;;5.03;3.10;;;5.20;99.90;;;;;;5094737;28;20415;-57
2022/03/31 02:37:43;;;;;;;3.97;3.38;;;5.20;99.90;;;;;;5094203;28;20801;-52
2022/03/31 02:40:13;;;;;;;5.65;3.55;;;5.20;99.90;;;;;;5093765;28;20428;-57
2022/03/31 02:42:39;;;;;;;4.28;3.30;;;5.30;99.90;;;;;;5095369;28;20900;-56
2022/03/31 02:45:07;;;;;;;4.10;3.10;;;5.20;99.90;;;;;;5099124;28;20432;-58
2022/03/31 02:47:35;;;;;;;4.40;3.30;;;5.20;99.90;;;;;;5097612;28;20396;-54
2022/03/31 02:50:02;;;;;;;5.43;3.15;;;5.20;99.90;;;;;;5096989;28;20393;-58
2022/03/31 02:55:24;;;;;;;5.60;3.67;;;5.10;99.90;;;;;;5113755;28;20508;-56
2022/03/31 02:55:27;;;;;;;5.78;3.45;;;5.10;99.90;;;;;;5114900;28;20388;-53
2022/03/31 02:58:00;;;;;;;4.05;3.65;;;5.00;99.90;;;;;;5097738;28;20421;-54
2022/03/31 03:00:27;;;;;;;4.70;3.70;;;5.00;99.90;;;;;;5115230;28;20788;-58
2022/03/31 03:02:54;;;;;;;5.15;3.80;;;5.00;99.90;;;;;;5113477;28;20922;-57
2022/03/31 03:05:21;;;;;;;5.75;3.80;;;5.00;99.90;;;;;;5096921;28;20800;-56
2022/03/31 03:07:47;;;;;;;5.28;3.85;;;5.00;99.90;;;;;;5115110;28;20784;-56
2022/03/31 03:10:13;;;;;;;4.18;3.67;;;4.90;99.90;;;;;;5097520;28;20479;-58
2022/03/31 03:12:41;;;;;;;5.18;4.10;;;4.90;99.90;;;;;;5097745;28;20938;-58
2022/03/31 03:15:08;;;;;;;5.40;3.85;;;4.80;99.90;;;;;;5116136;28;20384;-58
2022/03/31 03:17:35;;;;;;;4.65;3.75;;;4.80;99.90;;;;;;5098322;28;20766;-56
2022/03/31 03:20:01;;;;;;;4.53;3.85;;;4.90;99.90;;;;;;5097815;28;20772;-57
2022/03/31 03:22:28;;;;;;;4.63;4.05;;;4.90;99.90;;;;;;5113706;28;20377;-57
2022/03/31 03:24:54;;;;;;;5.57;4.20;;;4.80;99.90;;;;;;5095979;28;20706;-57
2022/03/31 03:27:19;;;;;;;4.75;4.28;;;4.80;99.90;;;;;;5097068;28;20407;-58
2022/03/31 03:29:46;;;;;;;5.65;4.10;;;4.80;99.90;;;;;;5115177;28;20392;-56
2022/03/31 03:32:14;;;;;;;4.63;4.17;;;4.70;99.90;;;;;;5114003;28;20384;-57
2022/03/31 03:34:40;;;;;;;5.30;4.18;;;4.60;99.90;;;;;;5094762;28;20387;-57
2022/03/31 03:37:06;;;;;;;5.68;4.10;;;4.60;99.90;;;;;;5094597;28;20412;-54
2022/03/31 03:39:34;;;;;;;4.45;4.05;;;4.60;99.90;;;;;;5095317;28;20380;-54
2022/03/31 03:42:01;;;;;;;4.25;3.80;;;4.60;99.90;;;;;;5095724;28;20391;-55
2022/03/31 03:44:27;;;;;;;5.05;4.43;;;4.60;99.90;;;;;;5094817;28;20807;-56
2022/03/31 03:46:53;;;;;;;4.80;4.18;;;4.50;99.90;;;;;;5093393;28;20388;-56
2022/03/31 03:49:20;;;;;;;5.25;4.30;;;4.50;99.90;;;;;;5093306;28;20775;-57
2022/03/31 03:51:47;;;;;;;5.10;4.00;;;4.50;99.90;;;;;;5091334;28;20538;-58
2022/03/31 03:54:14;;;;;;;5.35;4.43;;;4.40;99.90;;;;;;5110382;28;20372;-56
2022/03/31 03:56:40;;;;;;;4.57;4.18;;;4.40;99.90;;;;;;5092919;28;20439;-53
2022/03/31 03:59:06;;;;;;;4.43;4.03;;;4.40;99.90;;;;;;5092293;28;20376;-52
2022/03/31 04:01:32;;;;;;;4.97;3.93;;;4.40;99.90;;;;;;5092367;28;20492;-58
2022/03/31 04:03:58;;;;;;;4.30;3.90;;;4.30;99.90;;;;;;5092742;28;20376;-56
2022/03/31 04:06:24;;;;;;;5.47;4.00;;;4.30;99.90;;;;;;5109701;28;20464;-57
2022/03/31 04:08:50;;;;;;;4.78;4.13;;;4.30;99.90;;;;;;5092859;28;20385;-53
2022/03/31 04:11:17;;;;;;;4.20;3.80;;;4.30;99.90;;;;;;5092998;28;20380;-56
2022/03/31 04:13:43;;;;;;;4.82;4.32;;;4.20;99.90;;;;;;5092845;28;20392;-57
2022/03/31 04:16:09;;;;;;;5.90;4.45;;;4.20;99.90;;;;;;5093218;28;20380;-58
2022/03/31 04:18:35;;;;;;;4.40;4.00;;;4.10;99.90;;;;;;5094213;28;20396;-58
2022/03/31 04:21:02;;;;;;;4.93;3.90;;;4.10;99.90;;;;;;5092717;28;20403;-58
2022/03/31 04:23:28;;;;;;;4.50;4.10;;;4.20;99.90;;;;;;5110389;28;20369;-52
2022/03/31 04:25:55;;;;;;;3.95;3.60;;;4.20;99.90;;;;;;5091071;28;20388;-56
2022/03/31 04:28:21;;;;;;;5.22;4.63;;;4.20;99.90;;;;;;5091532;28;20404;-58
2022/03/31 04:30:47;;;;;;;5.05;4.18;;;4.10;99.90;;;;;;5091706;28;20378;-58
2022/03/31 04:33:13;;;;;;;4.70;4.20;;;4.10;99.90;;;;;;5090716;28;20810;-57
2022/03/31 04:35:40;;;;;;;4.45;3.78;;;4.10;99.90;;;;;;5091646;28;20383;-58
2022/03/31 04:38:06;;;;;;;4.65;4.07;;;4.00;99.90;;;;;;5108276;28;20406;-58
2022/03/31 04:40:32;;;;;;;4.18;3.80;;;4.00;99.90;;;;;;5107776;28;20377;-53
2022/03/31 04:42:58;;;;;;;4.82;3.50;;;4.00;99.90;;;;;;5109068;28;20465;-53
2022/03/31 04:45:24;;;;;;;4.50;3.87;;;3.90;99.90;;;;;;5092097;28;20373;-54
2022/03/31 04:47:51;;;;;;;4.15;3.80;;;3.90;99.90;;;;;;5090717;28;20392;-57
2022/03/31 04:50:17;;;;;;;4.30;3.90;;;4.00;99.90;;;;;;5107661;28;20384;-57
2022/03/31 04:52:43;;;;;;;4.20;3.80;;;4.00;99.90;;;;;;5090313;28;20380;-55
2022/03/31 04:55:10;;;;;;;5.28;3.97;;;3.90;99.90;;;;;;5090552;28;20388;-58
2022/03/31 04:57:36;;;;;;;4.22;3.83;;;4.00;99.90;;;;;;5090960;28;20431;-56
2022/03/31 05:00:03;;;;;;;5.78;3.83;;;3.90;99.90;;;;;;5090426;28;20380;-56
2022/03/31 05:02:30;;;;;;;4.30;3.85;;;3.90;99.90;;;;;;5089653;28;20475;-57
2022/03/31 05:04:56;;;;;;;4.18;3.78;;;3.90;99.90;;;;;;5090768;28;20667;-54
2022/03/31 05:07:22;;;;;;;4.78;3.80;;;3.80;99.90;;;;;;5106923;28;20757;-56
2022/03/31 05:09:49;;;;;;;4.38;3.97;;;3.80;99.90;;;;;;5090006;28;20590;-55
2022/03/31 05:12:15;;;;;;;3.90;3.50;;;3.80;99.90;;;;;;5089492;28;20405;-56
2022/03/31 05:14:41;;;;;;;4.65;3.97;;;3.70;99.90;;;;;;5089937;28;20411;-57
2022/03/31 05:17:08;;;;;;;4.45;4.05;;;3.70;99.90;;;;;;5090332;28;20403;-57
2022/03/31 05:19:34;;;;;;;4.20;3.80;;;3.70;99.90;;;;;;5091504;28;20785;-57
2022/03/31 05:22:00;;;;;;;5.05;4.10;;;3.70;99.90;;;;;;5089460;28;20454;-55
2022/03/31 05:24:26;;;;;;;4.53;3.95;;;3.70;99.90;;;;;;5091826;28;20405;-57
2022/03/31 05:26:53;;;;;;;4.32;3.80;;;3.70;99.90;;;;;;5089809;28;20411;-56
2022/03/31 05:29:20;;;;;;;4.78;3.85;;;3.60;99.90;;;;;;5090457;28;20376;-56
2022/03/31 05:31:47;;;;;;;4.40;3.63;;;3.70;99.90;;;;;;5107176;28;20441;-62
2022/03/31 05:34:13;;;;;;;4.22;3.70;;;3.70;99.90;;;;;;5090275;28;20545;-55
2022/03/31 05:36:39;;;;;;;4.68;3.70;;;3.60;99.90;;;;;;5089505;28;20411;-58
2022/03/31 05:39:06;;;;;;;4.13;3.72;;;3.60;99.90;;;;;;5107664;28;20372;-56
2022/03/31 05:41:32;;;;;;;5.32;4.13;;;3.60;99.90;;;;;;5089675;28;20377;-58
2022/03/31 05:43:58;;;;;;;4.40;4.00;;;3.60;99.90;;;;;;5086610;28;20398;-56
2022/03/31 05:46:25;;;;;;;3.90;3.50;;;3.60;99.90;;;;;;5090845;28;20374;-58
2022/03/31 05:48:52;;;;;;;4.75;3.92;;;3.50;99.90;;;;;;5087556;28;20780;-58
2022/03/31 05:51:17;;;;;;;4.18;3.60;;;3.50;99.90;;;;;;5087933;28;20378;-58
2022/03/31 05:53:44;;;;;;;4.63;3.80;;;3.50;99.90;;;;;;5087624;28;20374;-58
2022/03/31 05:56:10;;;;;;;4.18;3.53;;;3.50;99.90;;;;;;5087125;28;20774;-59
2022/03/31 05:58:36;;;;;;;4.15;3.75;;;3.40;99.90;;;;;;5086047;28;20690;-58
2022/03/31 06:01:02;;;;;;;5.32;3.72;;;3.40;99.90;;;;;;5087301;28;20473;-53
2022/03/31 06:03:28;;;;;;;4.18;3.47;;;3.40;99.90;;;;;;5086820;28;20382;-57
2022/03/31 06:05:55;;;;;;;4.85;3.53;;;3.30;99.90;;;;;;5087266;28;20401;-55
2022/03/31 06:08:21;;;;;;;5.33;3.13;;;3.30;99.90;;;;;;5086567;28;20502;-57
2022/03/31 06:10:47;;;;;;;3.30;2.92;;;3.30;99.90;;;;;;5087117;28;20802;-57
2022/03/31 06:13:13;;;;;;;3.65;2.97;;;3.30;99.90;;;;;;5085838;28;20394;-59
2022/03/31 06:15:40;;;;;;;3.58;3.10;;;3.30;99.90;;;;;;5086529;28;20397;-58
2022/03/31 06:18:09;;;;;;;4.73;3.30;;;3.20;99.90;;;;;;5087197;28;20624;-55
2022/03/31 06:20:35;;;;;;;4.43;3.10;;;3.20;99.90;;;;;;5085955;28;20442;-55
2022/03/31 06:23:07;;;;;;;3.83;3.13;;;3.20;99.90;;;;;;5086194;28;20374;-57
2022/03/31 06:25:40;;;;;;;4.85;2.97;;;3.20;99.90;;;;;;5091562;28;20378;-56
2022/03/31 06:28:07;;;;;;;4.78;3.38;;;3.20;99.90;;;;;;5088813;28;20401;-56
2022/03/31 06:30:33;;;;;;;4.40;3.40;;;3.30;99.90;;;;;;5090496;28;20377;-54
2022/03/31 06:33:00;;;;;;;5.93;2.97;;;3.20;99.90;;;;;;5092121;28;20393;-56
2022/03/31 06:35:27;;;;;;;5.40;3.08;;;3.10;99.90;;;;;;5092002;28;20397;-54
2022/03/31 06:37:54;;;;;;;4.15;3.03;;;3.20;99.90;;;;;;5092953;28;20448;-57
2022/03/31 06:40:20;;;;;;;3.50;2.80;;;3.30;99.90;;;;;;5091649;28;20370;-57
2022/03/31 06:42:47;;;;;;;4.43;3.35;;;3.30;99.90;;;;;;5093653;28;20378;-53
2022/03/31 06:45:16;;;;;;;4.32;3.17;;;3.20;99.90;;;;;;5096075;28;20395;-55
2022/03/31 06:47:43;;;;;;;4.28;3.10;;;3.20;99.90;;;;;;5113747;28;20467;-57
2022/03/31 06:50:10;;;;;;;4.60;3.10;;;3.20;99.90;;;;;;5095708;28;20396;-56
2022/03/31 06:52:38;;;;;;;3.30;2.90;;;3.20;99.90;;;;;;5095400;28;20392;-57
2022/03/31 06:55:05;;;;;;;4.93;3.10;;;3.20;99.90;;;;;;5109450;28;20973;-57
2022/03/31 06:57:31;;;;;;;5.72;3.00;;;3.20;99.90;;;;;;5090547;28;20854;-57
2022/03/31 06:59:57;;;;;;;4.28;2.70;;;3.20;99.90;;;;;;5109714;28;20798;-55
2022/03/31 07:02:23;;;;;;;4.43;2.97;;;3.20;99.90;;;;;;5091039;28;20380;-56
2022/03/31 07:04:49;;;;;;;5.35;2.90;;;3.30;99.90;;;;;;5091928;28;20392;-55
2022/03/31 07:07:15;;;;;;;4.03;2.92;;;3.30;99.90;;;;;;5107421;28;20384;-55
2022/03/31 07:09:41;;;;;;;3.95;2.83;;;3.30;99.90;;;;;;5106670;28;20380;-57
2022/03/31 07:12:07;;;;;;;3.90;3.20;;;3.30;99.90;;;;;;5111344;28;20384;-52
2022/03/31 07:14:36;;;;;;;4.65;3.05;;;3.20;99.90;;;;;;5091880;28;20387;-58
2022/03/31 07:17:02;;;;;;;4.35;2.75;;;3.20;99.90;;;;;;5092807;28;20403;-56
2022/03/31 07:19:28;;;;;;;3.50;2.97;;;3.20;99.90;;;;;;5090928;28;20392;-56
2022/03/31 07:21:55;;;;;;;4.65;3.05;;;3.20;99.90;;;;;;5088833;28;20784;-56
2022/03/31 07:24:20;;;;;;;4.72;2.80;;;3.10;99.90;;;;;;5107308;28;20850;-56
2022/03/31 07:26:47;;;;;;;4.55;2.97;;;3.10;99.90;;;;;;5087039;28;20465;-53
2022/03/31 07:29:12;;;;;;;3.90;2.75;;;3.10;99.90;;;;;;5088126;28;20376;-56
2022/03/31 07:31:38;;;;;;;3.42;2.85;;;3.20;99.90;;;;;;5089399;28;20381;-56
2022/03/31 07:34:04;;;;;;;6.18;3.10;;;3.20;99.90;;;;;;5088701;28;20835;-58
2022/03/31 07:36:30;;;;;;;4.00;2.97;;;3.20;99.90;;;;;;5108252;28;20492;-57
2022/03/31 07:38:56;;;;;;;3.45;2.88;;;3.20;99.90;;;;;;5107614;28;20376;-57
2022/03/31 07:41:22;;;;;;;4.40;3.10;;;3.20;99.90;;;;;;5090429;28;20396;-58
2022/03/31 07:43:48;;;;;;;7.13;2.88;;;3.20;99.90;;;;;;5086554;28;20409;-55
2022/03/31 07:46:14;;;;;;;4.43;2.65;;;3.20;99.90;;;;;;5087603;28;20659;-56
2022/03/31 07:48:40;;;;;;;4.68;2.90;;;3.30;99.90;;;;;;5085475;28;20465;-57
2022/03/31 07:51:06;;;;;;;5.75;2.90;;;3.30;99.90;;;;;;5083707;28;20413;-56
2022/03/31 07:53:33;;;;;;;4.18;2.72;;;3.30;99.90;;;;;;5084707;28;20433;-56
2022/03/31 07:56:05;;;;;;;4.57;2.95;;;3.30;99.90;;;;;;5083876;28;20397;-57
2022/03/31 07:58:32;;;;;;;5.20;3.03;;;3.30;99.90;;;;;;5085251;28;20893;-57
2022/03/31 08:00:58;;;;;;;3.45;2.88;;;3.40;99.90;;;;;;5081755;28;20913;-57
2022/03/31 08:03:25;;;;;;;3.65;2.83;;;3.40;99.90;;;;;;5080932;28;20914;-55
2022/03/31 08:05:51;;;;;;;4.15;3.00;;;3.50;99.90;;;;;;5083261;28;20939;-57
2022/03/31 08:08:19;;;;;;;5.82;2.97;;;3.40;99.90;;;;;;5081274;28;20378;-57
2022/03/31 08:10:45;;;;;;;4.18;2.83;;;3.50;99.90;;;;;;5082108;28;20382;-54
2022/03/31 08:13:11;;;;;;;4.53;3.00;;;3.60;99.90;;;;;;5083628;28;20557;-56
2022/03/31 08:15:38;;;;;;;4.00;3.13;;;3.60;99.90;;;;;;5083835;28;20393;-58
2022/03/31 08:18:05;;;;;;;4.05;2.90;;;3.50;99.90;;;;;;5084391;28;20416;-57
2022/03/31 08:20:31;;;;;;;3.70;2.90;;;3.50;99.90;;;;;;5086375;28;20381;-55
2022/03/31 08:23:00;;;;;;;4.18;2.90;;;3.50;99.90;;;;;;5085619;28;20379;-58
2022/03/31 08:25:25;;;;;;;3.60;2.77;;;3.70;99.90;;;;;;5084120;28;20469;-56
2022/03/31 08:27:51;;;;;;;3.33;2.80;;;3.70;99.90;;;;;;5082913;28;20615;-56
2022/03/31 08:30:19;;;;;;;4.63;2.83;;;3.80;99.90;;;;;;5081868;28;20687;-56
2022/03/31 08:32:46;;;;;;;4.75;2.70;;;3.80;99.90;;;;;;5080989;28;20442;-55
2022/03/31 08:35:14;;;;;;;3.90;3.00;;;3.80;99.90;;;;;;5080956;28;20713;-55
2022/03/31 08:37:41;;;;;;;4.55;2.97;;;4.00;99.90;;;;;;5082374;28;20406;-52
2022/03/31 08:40:11;;;;;;;4.00;2.80;;;4.00;99.90;;;;;;5083908;28;20374;-56
2022/03/31 08:42:37;;;;;;;4.28;3.13;;;4.00;99.90;;;;;;5083299;28;20386;-55
2022/03/31 08:45:04;;;;;;;3.22;2.65;;;4.00;99.90;;;;;;5105152;28;20477;-55
2022/03/31 08:47:30;;;;;;;3.65;2.85;;;3.90;99.90;;;;;;5107686;28;20444;-58
2022/03/31 08:49:57;;;;;;;4.68;3.33;;;4.00;99.90;;;;;;5107082;28;20407;-56
2022/03/31 08:52:24;;;;;;;5.47;2.70;;;3.90;99.90;;;;;;5089118;28;20433;-55
2022/03/31 08:54:50;;;;;;;4.25;2.90;;;3.90;99.90;;;;;;5107814;28;20738;-57
2022/03/31 08:57:17;;;;;;;3.90;2.72;;;3.90;99.90;;;;;;5108888;28;20437;-56
2022/03/31 08:59:43;;;;;;;4.82;3.10;;;4.00;99.90;;;;;;5091919;28;20372;-58
2022/03/31 09:02:21;;;;;;;3.35;2.75;;;4.00;99.90;;;;;;5089478;28;20675;-55
2022/03/31 09:04:46;;;;;;;4.13;2.85;;;4.00;99.90;;;;;;5090330;28;20396;-55
2022/03/31 09:07:12;;;;;;;4.05;2.67;;;4.10;99.90;;;;;;5092447;28;20390;-57
2022/03/31 09:09:50;;;;;;;3.92;2.83;;;4.20;99.90;;;;;;5093496;28;20387;-58
2022/03/31 09:12:16;;;;;;;4.63;2.65;;;4.30;99.90;;;;;;5111789;28;20386;-58
2022/03/31 09:14:43;;;;;;;3.60;2.60;;;4.40;99.90;;;;;;5093417;28;20376;-58
2022/03/31 09:17:16;;;;;;;5.47;2.92;;;4.50;99.90;;;;;;5094213;28;20396;-58
2022/03/31 09:19:45;;;;;;;3.35;2.90;;;4.60;99.90;;;;;;5093389;28;20648;-58
2022/03/31 09:22:11;;;;;;;4.07;2.80;;;4.70;99.90;;;;;;5092887;28;20420;-55
2022/03/31 09:24:39;;;;;;;4.07;2.67;;;4.80;99.90;;;;;;5090966;28;20810;-56
2022/03/31 09:27:06;;;;;;;4.38;3.15;;;4.80;99.90;;;;;;5090425;28;20902;-56
2022/03/31 09:29:34;;;;;;;5.05;2.85;;;4.80;99.90;;;;;;5091227;28;20408;-54
2022/03/31 09:32:11;;;;;;;3.38;2.67;;;4.80;99.90;;;;;;5108832;28;20417;-58
2022/03/31 09:34:45;;;;;;;3.25;2.53;;;4.90;99.90;;;;;;5074446;28;20495;-58
2022/03/31 09:37:13;;;;;;;4.28;2.60;;;4.90;99.90;;;;;;5078806;28;21074;-55
2022/03/31 09:39:40;;;;;;;4.70;2.80;;;5.00;99.90;;;;;;5094280;28;20672;-56
2022/03/31 09:42:12;;;;;;;3.58;2.78;;;5.00;99.90;;;;;;5097402;28;20384;-52
2022/03/31 09:44:42;;;;;;;4.10;2.80;;;5.10;99.90;;;;;;5093619;28;20415;-57
2022/03/31 09:47:10;;;;;;;4.88;2.90;;;5.20;99.90;;;;;;5091165;28;20447;-53
2022/03/31 09:49:36;;;;;;;5.13;2.90;;;5.30;99.90;;;;;;5090595;28;20485;-55
2022/03/31 09:52:07;;;;;;;4.90;2.78;;;5.30;99.90;;;;;;5091935;28;20469;-56
2022/03/31 09:54:34;;;;;;;3.25;2.67;;;5.40;99.90;;;;;;5091617;28;20409;-58
2022/03/31 09:57:03;;;;;;;3.75;2.80;;;5.50;99.90;;;;;;5092593;28;21023;-59
2022/03/31 09:59:42;;;;;;;3.42;3.08;;;5.50;99.90;;;;;;5091251;28;20453;-55
2022/03/31 10:02:09;;;;;;;4.20;3.00;;;5.50;99.90;;;;;;5090429;28;20417;-52
2022/03/31 10:04:36;;;;;;;3.30;2.70;;;5.60;99.90;;;;;;5074036;28;20423;-57
2022/03/31 10:07:03;;;;;;;3.78;2.83;;;5.70;99.90;;;;;;5070097;28;20387;-52
2022/03/31 10:09:35;;;;;;;4.22;2.92;;;5.80;99.90;;;;;;5050951;28;20399;-55
2022/03/31 10:12:33;;;;;;;4.57;2.90;;;5.90;99.90;;;;;;5068426;28;20379;-57
2022/03/31 10:15:05;;;;;;;3.90;3.10;;;5.90;99.90;;;;;;5051798;28;20411;-56
2022/03/31 10:17:33;;;;;;;4.22;2.85;;;6.00;99.90;;;;;;5051758;28;21019;-54
2022/03/31 10:20:16;;;;;;;3.38;2.50;;;6.00;99.90;;;;;;5055227;28;20683;-55
2022/03/31 10:25:52;;;;;;;4.05;2.60;;;6.20;99.90;;;;;;5069543;28;20433;-56
2022/03/31 10:28:22;;;;;;;5.30;2.67;;;6.30;99.90;;;;;;5070999;28;20447;-54
2022/03/31 10:31:07;;;;;;;3.20;2.60;;;6.40;99.90;;;;;;5072205;28;20446;-56
2022/03/31 10:33:42;;;;;;;4.30;2.80;;;6.50;99.90;;;;;;5074811;28;20394;-55
2022/03/31 10:36:12;;;;;;;3.27;2.40;;;6.60;99.90;;;;;;5083897;28;20919;-54
2022/03/31 10:38:50;;;;;;;3.05;2.50;;;6.80;99.90;;;;;;5084510;28;20516;-54
2022/03/31 10:41:16;;;;;;;3.33;2.22;;;6.90;99.90;;;;;;5085013;28;20598;-56
2022/03/31 10:43:47;;;;;;;4.03;2.58;;;7.00;99.90;;;;;;5085831;28;20448;-54
2022/03/31 10:46:14;;;;;;;3.47;2.42;;;7.10;99.90;;;;;;5084294;28;20378;-53
2022/03/31 10:48:50;;;;;;;3.10;2.28;;;7.10;99.90;;;;;;5084422;28;20382;-56
2022/03/31 10:51:16;;;;;;;4.03;2.38;;;7.30;99.90;;;;;;5086461;28;20438;-55
2022/03/31 10:53:48;;;;;;;3.53;1.92;;;7.40;99.90;;;;;;5087693;28;20393;-56
2022/03/31 10:56:25;;;;;;;2.67;2.17;;;7.60;99.90;;;;;;5090132;28;20382;-55
2022/03/31 10:58:57;;;;;;;2.60;2.00;;;7.80;99.90;;;;;;5087798;28;20501;-54
2022/03/31 11:01:28;;;;;;;3.67;2.03;;;7.80;99.90;;;;;;5057020;28;20824;-57
2022/03/31 11:04:01;;;;;;;2.60;1.98;;;8.10;99.90;;;;;;5047437;28;20640;-53
2022/03/31 11:06:27;;;;;;;2.93;2.00;;;8.30;99.90;;;;;;5049013;28;20378;-55
2022/03/31 11:08:53;;;;;;;3.00;2.00;;;8.40;99.90;;;;;;5049336;28;20471;-57
2022/03/31 11:11:28;;;;;;;4.13;2.33;;;8.40;99.90;;;;;;5048502;28;20393;-56
2022/03/31 11:13:55;;;;;;;3.15;1.92;;;8.50;99.90;;;;;;5047190;28;20389;-53
2022/03/31 11:16:22;;;;;;;2.63;1.90;;;8.50;99.90;;;;;;5047471;28;20393;-54
2022/03/31 11:18:55;;;;;;;2.60;2.00;;;8.60;99.90;;;;;;5048401;28;20639;-57
2022/03/31 11:21:23;;;;;;;2.97;1.92;;;8.60;99.90;;;;;;5046865;28;20369;-53
2022/03/31 11:23:50;;;;;;;4.68;1.80;;;8.80;99.90;;;;;;5045958;28;20480;-57
2022/03/31 11:26:27;;;;;;;2.30;1.90;;;9.00;99.90;;;;;;5047456;28;20436;-57
2022/03/31 11:28:54;;;;;;;3.00;2.00;;;9.00;99.90;;;;;;5048908;28;20463;-57
2022/03/31 11:31:20;;;;;;;3.40;1.88;;;9.10;99.90;;;;;;5047826;28;20389;-56
2022/03/31 11:33:47;;;;;;;2.00;1.70;;;9.00;99.90;;;;;;5045406;28;20390;-57
2022/03/31 11:36:14;;;;;;;2.95;2.00;;;9.20;99.90;;;;;;5046883;28;20800;-56
2022/03/31 11:38:55;;;;;;;3.13;1.83;;;9.40;99.90;;;;;;5027914;28;22196;-58
2022/03/31 11:41:21;;;;;;;4.60;1.90;;;9.60;99.90;;;;;;5045800;28;20547;-57
2022/03/31 11:43:48;;;;;;;3.55;1.80;;;9.60;99.90;;;;;;5054347;28;20462;-54
2022/03/31 11:46:14;;;;;;;3.20;1.70;;;9.70;99.90;;;;;;5065427;28;20387;-54
2022/03/31 11:48:41;;;;;;;2.92;1.70;;;9.90;99.90;;;;;;5064400;28;20371;-58
2022/03/31 11:51:08;;;;;;;2.67;1.52;;;10.10;99.90;;;;;;5063536;28;20991;-56
2022/03/31 11:53:43;;;;;;;5.35;1.52;;;10.00;99.90;;;;;;5065911;28;20411;-56
2022/03/31 11:56:21;;;;;;;4.13;1.60;;;10.00;99.90;;;;;;5064071;28;20453;-57
2022/03/31 11:58:47;;;;;;;2.10;1.35;;;9.90;99.90;;;;;;5065440;28;20403;-57
2022/03/31 12:01:15;;;;;;;2.80;1.45;;;9.90;99.90;;;;;;5063162;28;20376;-53
2022/03/31 12:03:41;;;;;;;1.70;1.33;;;10.00;99.90;;;;;;5061518;28;20732;-56
2022/03/31 12:06:07;;;;;;;2.65;1.63;;;10.10;99.90;;;;;;5060226;28;20795;-53
2022/03/31 12:08:34;;;;;;;2.67;1.70;;;10.10;99.90;;;;;;5060189;28;20410;-55
2022/03/31 12:11:01;;;;;;;2.20;1.80;;;10.00;99.90;;;;;;5061413;28;20394;-58
2022/03/31 12:13:28;;;;;;;2.70;1.63;;;9.80;98.50;;;;;;5058808;28;20466;-56
2022/03/31 12:16:05;;;;;;;2.20;1.48;;;10.00;99.90;;;;;;5057773;28;20379;-56
2022/03/31 12:18:33;;;;;;;2.80;1.50;;;10.20;99.90;;;;;;5059693;28;20486;-55
2022/03/31 12:21:00;;;;;;;2.93;1.60;;;10.30;99.90;;;;;;5062491;28;20502;-55
2022/03/31 12:23:27;;;;;;;4.10;1.50;;;10.30;99.90;;;;;;5063848;28;20718;-56
2022/03/31 12:25:54;;;;;;;1.60;1.30;;;10.10;98.30;;;;;;5064479;28;20396;-58
2022/03/31 12:28:23;;;;;;;3.20;1.58;;;10.20;98.40;;;;;;5065559;28;20491;-56
2022/03/31 12:30:55;;;;;;;2.53;1.27;;;10.00;97.80;;;;;;5068061;28;20712;-57
2022/03/31 12:33:26;;;;;;;3.25;1.40;;;9.90;97.10;;;;;;5069311;28;20832;-56
2022/03/31 12:36:03;;;;;;;4.37;1.40;;;9.70;96.20;;;;;;5068613;28;20636;-57
2022/03/31 12:38:42;;;;;;;2.55;1.23;;;9.50;95.70;;;;;;5069034;28;20418;-54
2022/03/31 12:41:40;;;;;;;2.77;1.30;;;9.40;95.50;;;;;;5069556;28;20395;-54
2022/03/31 12:44:12;;;;;;;2.72;1.40;;;9.50;95.20;;;;;;5063848;28;20400;-56
2022/03/31 12:46:59;;;;;;;2.00;1.30;;;9.60;94.10;;;;;;5068086;28;20394;-56
2022/03/31 12:49:33;;;;;;;1.95;1.20;;;9.60;94.00;;;;;;5069056;28;20379;-57
2022/03/31 12:52:09;;;;;;;2.15;1.27;;;9.60;93.10;;;;;;5062550;28;20396;-57
2022/03/31 12:54:38;;;;;;;2.55;1.10;;;9.80;93.20;;;;;;5063119;28;20380;-57
2022/03/31 12:57:17;;;;;;;1.38;1.00;;;10.00;93.30;;;;;;5061477;28;20518;-56
2022/03/31 12:59:44;;;;;;;1.60;1.00;;;10.00;92.20;;;;;;5060283;28;20410;-56
2022/03/31 13:02:12;;;;;;;2.22;1.45;;;10.20;92.70;;;;;;5061256;28;20376;-58